createdAt,value
2023-02-25T00:01:44.510Z,8.60
2023-02-25T00:04:15.689Z,8.50
2023-02-25T00:06:42.742Z,8.50
2023-02-25T00:09:11.432Z,8.60
2023-02-25T00:11:38.771Z,8.60
2023-02-25T00:14:06.036Z,8.60
2023-02-25T00:16:33.068Z,8.70
2023-02-25T00:19:00.227Z,8.70
2023-02-25T00:21:29.660Z,8.70
2023-02-25T00:24:04.464Z,8.80
2023-02-25T00:26:41.387Z,8.80
2023-02-25T00:29:08.373Z,8.80
2023-02-25T00:31:35.509Z,8.80
2023-02-25T00:34:03.107Z,8.80
2023-02-25T00:36:30.162Z,8.80
2023-02-25T00:38:58.291Z,8.80
2023-02-25T00:41:28.907Z,8.70
2023-02-25T00:44:01.075Z,8.70
2023-02-25T00:46:30.188Z,8.70
2023-02-25T00:48:58.752Z,8.70
2023-02-25T00:51:29.022Z,8.70
2023-02-25T00:53:56.951Z,8.70
2023-02-25T00:56:26.215Z,8.60
2023-02-25T00:58:54.033Z,8.60
2023-02-25T01:01:27.525Z,8.60
2023-02-25T01:03:56.725Z,8.60
2023-02-25T01:06:28.586Z,8.50
2023-02-25T01:08:56.990Z,8.50
2023-02-25T01:11:32.857Z,8.50
2023-02-25T01:14:03.890Z,8.40
2023-02-25T01:16:32.378Z,8.40
2023-02-25T01:19:02.608Z,8.40
2023-02-25T01:21:34.306Z,8.40
2023-02-25T01:24:07.111Z,8.40
2023-02-25T01:26:36.725Z,8.30
2023-02-25T01:29:08.446Z,8.30
2023-02-25T01:31:35.634Z,8.30
2023-02-25T01:34:04.327Z,8.30
2023-02-25T01:36:32.135Z,8.30
2023-02-25T01:39:00.495Z,8.30
2023-02-25T01:41:29.275Z,8.20
2023-02-25T01:44:16.362Z,8.20
2023-02-25T01:46:46.375Z,8.20
2023-02-25T01:49:31.249Z,8.10
2023-02-25T01:52:17.040Z,8.10
2023-02-25T01:54:46.078Z,8.10
2023-02-25T01:57:17.367Z,8.10
2023-02-25T01:59:45.304Z,8.00
2023-02-25T02:02:16.883Z,8.00
2023-02-25T02:04:50.281Z,8.00
2023-02-25T02:07:18.859Z,7.90
2023-02-25T02:09:56.119Z,7.90
2023-02-25T02:12:29.424Z,7.90
2023-02-25T02:14:59.696Z,7.80
2023-02-25T02:17:53.976Z,7.80
2023-02-25T02:20:30.415Z,7.70
2023-02-25T02:23:30.777Z,7.70
2023-02-25T02:26:03.451Z,7.60
2023-02-25T02:29:08.703Z,7.60
2023-02-25T02:31:53.532Z,7.50
2023-02-25T02:34:30.362Z,7.50
2023-02-25T02:37:26.278Z,7.40
2023-02-25T02:40:14.269Z,7.40
2023-02-25T02:42:52.688Z,7.30
2023-02-25T02:45:26.079Z,7.30
2023-02-25T02:48:02.037Z,7.20
2023-02-25T02:50:38.106Z,7.10
2023-02-25T02:53:11.981Z,7.00
2023-02-25T02:55:46.378Z,6.90
2023-02-25T02:58:43.575Z,6.80
2023-02-25T03:01:51.734Z,6.70
2023-02-25T03:04:24.153Z,6.70
2023-02-25T03:06:56.090Z,6.60
2023-02-25T03:09:30.759Z,6.60
2023-02-25T03:11:57.860Z,6.50
2023-02-25T03:14:24.900Z,6.50
2023-02-25T03:16:57.790Z,6.50
2023-02-25T03:19:38.043Z,6.40
2023-02-25T03:22:09.745Z,6.40
2023-02-25T03:24:53.999Z,6.30
2023-02-25T03:27:28.613Z,6.30
2023-02-25T03:30:09.748Z,6.30
2023-02-25T03:32:38.791Z,6.30
2023-02-25T03:35:09.567Z,6.30
2023-02-25T03:37:39.693Z,6.30
2023-02-25T03:40:14.497Z,6.30
2023-02-25T03:42:51.359Z,6.30
2023-02-25T03:45:19.873Z,6.30
2023-02-25T03:47:47.097Z,6.30
2023-02-25T03:50:28.598Z,6.30
2023-02-25T03:52:55.673Z,6.40
2023-02-25T03:55:23.080Z,6.40
2023-02-25T03:57:52.061Z,6.40
2023-02-25T04:00:32.474Z,6.30
2023-02-25T04:02:59.723Z,6.30
2023-02-25T04:05:27.937Z,6.20
2023-02-25T04:07:59.496Z,6.10
2023-02-25T04:10:26.802Z,6.00
2023-02-25T04:12:54.061Z,6.00
2023-02-25T04:15:21.540Z,5.90
2023-02-25T04:17:48.628Z,5.90
2023-02-25T04:20:17.401Z,5.80
2023-02-25T04:22:44.583Z,5.70
2023-02-25T04:25:12.025Z,5.60
2023-02-25T04:27:39.019Z,5.50
2023-02-25T04:30:06.716Z,5.40
2023-02-25T04:32:33.768Z,5.30
2023-02-25T04:35:03.568Z,5.30
2023-02-25T04:37:31.625Z,5.30
2023-02-25T04:39:58.808Z,5.20
2023-02-25T04:42:25.896Z,5.10
2023-02-25T04:44:52.967Z,5.10
2023-02-25T04:47:19.985Z,5.10
2023-02-25T04:49:46.994Z,5.10
2023-02-25T04:52:15.254Z,5.10
2023-02-25T04:54:42.667Z,5.10
2023-02-25T04:57:12.253Z,5.10
2023-02-25T04:59:39.638Z,5.10
2023-02-25T05:02:07.664Z,5.00
2023-02-25T05:04:36.224Z,5.00
2023-02-25T05:07:03.581Z,5.10
2023-02-25T05:09:30.702Z,5.00
2023-02-25T05:11:57.692Z,5.00
2023-02-25T05:14:24.865Z,5.00
2023-02-25T05:16:51.996Z,5.00
2023-02-25T05:19:24.174Z,5.00
2023-02-25T05:21:52.430Z,5.00
2023-02-25T05:24:19.919Z,5.00
2023-02-25T05:26:46.920Z,5.00
2023-02-25T05:29:13.921Z,5.00
2023-02-25T05:31:41.167Z,5.00
2023-02-25T05:34:08.400Z,5.10
2023-02-25T05:36:35.393Z,5.10
2023-02-25T05:39:03.187Z,5.10
2023-02-25T05:41:30.657Z,5.10
2023-02-25T05:43:58.408Z,5.10
2023-02-25T05:46:27.063Z,5.10
2023-02-25T05:48:54.516Z,5.00
2023-02-25T05:51:23.758Z,5.00
2023-02-25T05:53:53.944Z,5.00
2023-02-25T05:56:25.506Z,4.90
2023-02-25T05:58:53.312Z,4.90
2023-02-25T06:01:24.401Z,4.90
2023-02-25T06:03:58.585Z,4.90
2023-02-25T06:06:28.540Z,4.90
2023-02-25T06:08:56.082Z,4.90
2023-02-25T06:11:29.143Z,4.90
2023-02-25T06:13:57.434Z,4.90
2023-02-25T06:16:26.332Z,4.90
2023-02-25T06:18:53.736Z,4.90
2023-02-25T06:21:20.794Z,4.90
2023-02-25T06:23:50.514Z,5.00
2023-02-25T06:26:18.141Z,5.00
2023-02-25T06:28:45.200Z,5.00
2023-02-25T06:31:14.801Z,5.00
2023-02-25T06:33:42.003Z,5.00
2023-02-25T06:36:09.581Z,5.00
2023-02-25T06:38:36.909Z,5.00
2023-02-25T06:41:14.361Z,5.00
2023-02-25T06:43:42.324Z,5.10
2023-02-25T06:46:12.049Z,5.20
2023-02-25T06:48:39.519Z,5.30
2023-02-25T06:51:10.719Z,5.50
2023-02-25T06:53:39.215Z,5.70
2023-02-25T06:56:08.402Z,5.70
2023-02-25T06:58:36.839Z,5.70
2023-02-25T07:01:09.229Z,5.70
2023-02-25T07:03:36.780Z,5.60
2023-02-25T07:06:04.623Z,5.60
2023-02-25T07:08:32.238Z,5.60
2023-02-25T07:11:18.888Z,5.50
2023-02-25T07:13:49.847Z,5.20
2023-02-25T07:16:17.537Z,5.00
2023-02-25T07:18:45.532Z,4.80
2023-02-25T07:21:13.269Z,4.70
2023-02-25T07:23:40.808Z,4.80
2023-02-25T07:26:11.244Z,4.70
2023-02-25T07:28:39.197Z,4.80
2023-02-25T07:31:14.102Z,5.00
2023-02-25T07:33:42.003Z,5.30
2023-02-25T07:36:10.632Z,5.50
2023-02-25T07:38:39.084Z,5.60
2023-02-25T07:41:12.086Z,5.70
2023-02-25T07:43:40.135Z,5.90
2023-02-25T07:46:08.641Z,6.00
2023-02-25T07:48:35.775Z,6.10
2023-02-25T07:51:12.687Z,6.20
2023-02-25T07:53:40.056Z,6.30
2023-02-25T07:56:08.686Z,6.40
2023-02-25T07:58:36.047Z,6.50
2023-02-25T08:01:12.720Z,6.60
2023-02-25T08:03:39.730Z,6.70
2023-02-25T08:06:08.345Z,6.80
2023-02-25T08:08:36.489Z,6.90
2023-02-25T08:11:12.004Z,7.00
2023-02-25T08:13:39.415Z,7.10
2023-02-25T08:16:11.790Z,7.20
2023-02-25T08:18:39.298Z,7.30
2023-02-25T08:21:06.656Z,7.40
2023-02-25T08:23:33.764Z,7.50
2023-02-25T08:26:01.600Z,7.50
2023-02-25T08:28:34.254Z,7.60
2023-02-25T08:31:04.306Z,7.80
2023-02-25T08:33:31.493Z,8.10
2023-02-25T08:36:10.676Z,8.10
2023-02-25T08:38:38.650Z,7.80
2023-02-25T08:41:07.117Z,7.70
2023-02-25T08:43:34.743Z,7.70
2023-02-25T08:46:02.324Z,7.50
2023-02-25T08:48:29.928Z,7.30
2023-02-25T08:50:56.964Z,7.40
2023-02-25T08:53:24.029Z,7.50
2023-02-25T08:55:54.160Z,7.50
2023-02-25T08:58:21.243Z,7.70
2023-02-25T09:00:50.185Z,7.90
2023-02-25T09:03:17.299Z,7.90
2023-02-25T09:05:50.647Z,7.90
2023-02-25T09:08:17.658Z,7.90
2023-02-25T09:10:50.154Z,7.80
2023-02-25T09:13:18.195Z,7.80
2023-02-25T09:15:45.642Z,7.70
2023-02-25T09:18:12.674Z,7.60
2023-02-25T09:20:39.722Z,7.60
2023-02-25T09:23:06.769Z,7.70
2023-02-25T09:25:33.870Z,7.70
2023-02-25T09:28:01.043Z,7.80
2023-02-25T09:30:28.113Z,7.70
2023-02-25T09:32:55.325Z,7.60
2023-02-25T09:35:22.521Z,7.50
2023-02-25T09:37:49.514Z,7.40
2023-02-25T09:40:22.876Z,7.50
2023-02-25T09:42:59.900Z,7.50
2023-02-25T09:45:27.604Z,7.60
2023-02-25T09:48:00.458Z,8.00
2023-02-25T09:50:35.452Z,8.00
2023-02-25T09:53:11.810Z,8.20
2023-02-25T09:55:41.308Z,8.30
2023-02-25T09:58:33.017Z,8.40
2023-02-25T10:01:10.352Z,8.50
2023-02-25T10:04:22.046Z,8.50
2023-02-25T10:06:51.369Z,8.40
2023-02-25T10:09:27.454Z,8.40
2023-02-25T10:12:37.508Z,8.30
2023-02-25T10:15:23.034Z,8.30
2023-02-25T10:18:23.785Z,8.20
2023-02-25T10:21:17.745Z,8.20
2023-02-25T10:24:07.352Z,8.10
2023-02-25T10:26:39.603Z,8.10
2023-02-25T10:29:12.334Z,8.10
2023-02-25T10:31:44.397Z,8.00
2023-02-25T10:34:26.211Z,7.90
2023-02-25T10:36:59.520Z,7.70
2023-02-25T10:39:28.628Z,7.70
2023-02-25T10:41:55.846Z,7.70
2023-02-25T10:44:22.900Z,7.70
2023-02-25T10:46:55.821Z,7.60
2023-02-25T10:49:26.138Z,7.70
2023-02-25T10:52:03.427Z,7.70
2023-02-25T10:54:33.231Z,7.60
2023-02-25T10:57:09.040Z,7.60
2023-02-25T10:59:39.779Z,7.50
2023-02-25T11:02:41.250Z,7.50
2023-02-25T11:05:36.239Z,7.50
2023-02-25T11:08:09.083Z,7.40
2023-02-25T11:10:36.167Z,7.50
2023-02-25T11:13:06.193Z,7.70
2023-02-25T11:15:46.488Z,8.00
2023-02-25T11:18:28.338Z,8.40
2023-02-25T11:20:57.982Z,8.60
2023-02-25T11:23:40.030Z,8.70
2023-02-25T11:26:08.579Z,8.90
2023-02-25T11:28:41.511Z,9.00
2023-02-25T11:31:20.228Z,9.10
2023-02-25T11:33:59.463Z,9.40
2023-02-25T11:36:32.684Z,9.20
2023-02-25T11:39:16.753Z,9.10
2023-02-25T11:41:58.971Z,8.90
2023-02-25T11:44:40.298Z,9.00
2023-02-25T11:47:25.400Z,9.30
2023-02-25T11:50:17.843Z,9.60
2023-02-25T11:52:52.450Z,9.70
2023-02-25T11:55:37.462Z,10.00
2023-02-25T11:58:17.518Z,9.80
2023-02-25T12:01:05.064Z,9.50
2023-02-25T12:04:04.725Z,9.70
2023-02-25T12:06:43.677Z,9.60
2023-02-25T12:09:41.471Z,9.60
2023-02-25T12:12:32.069Z,9.50
2023-02-25T12:14:59.103Z,9.30
2023-02-25T12:17:26.374Z,9.30
2023-02-25T12:19:54.767Z,9.40
2023-02-25T12:22:58.732Z,9.60
2023-02-25T12:25:37.519Z,9.60
2023-02-25T12:28:20.093Z,9.80
2023-02-25T12:31:24.972Z,9.90
2023-02-25T12:34:23.464Z,10.10
2023-02-25T12:37:16.832Z,10.00
2023-02-25T12:39:58.545Z,10.30
2023-02-25T12:42:33.542Z,10.20
2023-02-25T12:45:29.761Z,10.40
2023-02-25T12:48:07.035Z,10.40
2023-02-25T12:50:42.918Z,10.40
2023-02-25T12:53:09.931Z,10.40
2023-02-25T12:55:36.858Z,10.50
2023-02-25T12:58:29.202Z,10.50
2023-02-25T13:01:19.602Z,10.40
2023-02-25T13:03:59.328Z,10.50
2023-02-25T13:06:42.922Z,10.60
2023-02-25T13:09:15.798Z,10.80
2023-02-25T13:12:15.927Z,10.70
2023-02-25T13:14:46.682Z,10.40
2023-02-25T13:17:34.587Z,10.00
2023-02-25T13:20:20.167Z,10.20
2023-02-25T13:23:17.949Z,10.30
2023-02-25T13:25:57.054Z,10.10
2023-02-25T13:28:37.457Z,10.10
2023-02-25T13:31:33.741Z,10.10
2023-02-25T13:34:39.657Z,10.00
2023-02-25T13:37:43.503Z,10.00
2023-02-25T13:40:44.662Z,9.90
2023-02-25T13:43:33.309Z,10.00
2023-02-25T13:46:21.194Z,9.80
2023-02-25T13:49:26.037Z,9.80
2023-02-25T13:52:09.885Z,9.70
2023-02-25T13:55:01.489Z,9.60
2023-02-25T13:58:02.427Z,9.60
2023-02-25T14:01:00.500Z,9.60
2023-02-25T14:04:01.682Z,9.60
2023-02-25T14:07:05.948Z,9.50
2023-02-25T14:10:10.538Z,9.60
2023-02-25T14:12:56.061Z,9.40
2023-02-25T14:15:38.789Z,9.30
2023-02-25T14:18:24.292Z,9.30
2023-02-25T14:21:16.255Z,9.10
2023-02-25T14:24:04.172Z,9.10
2023-02-25T14:26:46.592Z,9.00
2023-02-25T14:29:30.002Z,8.90
2023-02-25T14:32:36.868Z,8.80
2023-02-25T14:35:41.258Z,8.70
2023-02-25T14:38:13.842Z,8.60
2023-02-25T14:40:43.533Z,8.60
2023-02-25T14:43:17.187Z,8.50
2023-02-25T14:45:52.842Z,8.50
2023-02-25T14:48:28.969Z,8.40
2023-02-25T14:51:26.944Z,8.30
2023-02-25T14:54:25.823Z,8.10
2023-02-25T14:57:21.103Z,7.90
2023-02-25T15:00:16.317Z,7.70
2023-02-25T15:03:11.054Z,7.50
2023-02-25T15:06:03.672Z,7.30
2023-02-25T15:09:00.268Z,7.10
2023-02-25T15:11:52.560Z,7.00
2023-02-25T15:14:41.322Z,6.70
2023-02-25T15:17:29.508Z,6.50
2023-02-25T15:20:05.753Z,6.30
2023-02-25T15:22:33.346Z,6.10
2023-02-25T15:25:22.039Z,6.00
2023-02-25T15:27:56.792Z,5.90
2023-02-25T15:30:26.282Z,5.70
2023-02-25T15:33:31.671Z,5.60
2023-02-25T15:36:01.234Z,5.50
2023-02-25T15:38:49.812Z,5.40
2023-02-25T15:41:35.331Z,5.40
2023-02-25T15:44:11.401Z,5.40
2023-02-25T15:46:41.246Z,5.40
2023-02-25T15:49:11.735Z,5.50
2023-02-25T15:51:44.484Z,5.40
2023-02-25T15:54:32.540Z,5.40
2023-02-25T15:57:27.500Z,5.50
2023-02-25T15:59:57.931Z,5.50
2023-02-25T16:02:33.844Z,5.50
2023-02-25T16:05:05.011Z,5.50
2023-02-25T16:07:37.335Z,5.50
2023-02-25T16:10:19.605Z,5.60
2023-02-25T16:12:51.317Z,5.60
2023-02-25T16:15:37.800Z,5.50
2023-02-25T16:18:17.165Z,5.50
2023-02-25T16:20:51.756Z,5.50
2023-02-25T16:23:20.837Z,5.40
2023-02-25T16:26:07.129Z,5.40
2023-02-25T16:28:53.331Z,5.40
2023-02-25T16:31:30.050Z,5.40
2023-02-25T16:34:15.768Z,5.40
2023-02-25T16:37:20.124Z,5.40
2023-02-25T16:39:48.489Z,5.40
2023-02-25T16:42:19.084Z,5.40
2023-02-25T16:44:56.191Z,5.40
2023-02-25T16:47:26.092Z,5.30
2023-02-25T16:49:56.069Z,5.30
2023-02-25T16:52:48.169Z,5.20
2023-02-25T16:55:30.706Z,5.20
2023-02-25T16:58:24.033Z,5.20
2023-02-25T17:01:00.612Z,5.20
2023-02-25T17:03:33.346Z,5.20
2023-02-25T17:06:11.284Z,5.20
2023-02-25T17:08:45.677Z,5.30
2023-02-25T17:11:22.807Z,5.30
2023-02-25T17:13:54.857Z,5.40
2023-02-25T17:16:41.709Z,5.50
2023-02-25T17:19:12.304Z,5.50
2023-02-25T17:21:47.043Z,5.50
2023-02-25T17:24:21.241Z,5.50
2023-02-25T17:26:50.873Z,5.30
2023-02-25T17:29:20.205Z,5.10
2023-02-25T17:31:55.974Z,4.90
2023-02-25T17:34:31.647Z,4.80
2023-02-25T17:37:03.690Z,4.60
2023-02-25T17:39:31.851Z,4.60
2023-02-25T17:41:59.493Z,4.50
2023-02-25T17:44:43.214Z,4.50
2023-02-25T17:47:19.556Z,4.50
2023-02-25T17:49:48.310Z,4.40
2023-02-25T17:52:28.712Z,4.40
2023-02-25T17:55:21.883Z,4.40
2023-02-25T17:57:49.941Z,4.40
2023-02-25T18:00:55.810Z,4.30
2023-02-25T18:03:26.842Z,4.30
2023-02-25T18:06:03.526Z,4.30
2023-02-25T18:08:32.906Z,4.20
2023-02-25T18:11:21.817Z,4.20
2023-02-25T18:13:49.788Z,4.20
2023-02-25T18:16:34.054Z,4.10
2023-02-25T18:19:08.512Z,4.00
2023-02-25T18:21:43.140Z,3.90
2023-02-25T18:24:30.404Z,3.90
2023-02-25T18:27:08.102Z,3.90
2023-02-25T18:29:35.836Z,3.80
2023-02-25T18:32:04.097Z,3.80
2023-02-25T18:34:32.392Z,3.80
2023-02-25T18:37:01.219Z,3.80
2023-02-25T18:39:29.214Z,3.80
2023-02-25T18:41:58.483Z,3.80
2023-02-25T18:44:26.613Z,3.80
2023-02-25T18:46:54.594Z,3.80
2023-02-25T18:49:22.641Z,3.80
2023-02-25T18:51:51.910Z,3.90
2023-02-25T18:54:19.934Z,3.90
2023-02-25T18:56:47.672Z,3.90
2023-02-25T18:59:15.819Z,3.90
2023-02-25T19:01:44.728Z,3.90
2023-02-25T19:04:21.361Z,3.90
2023-02-25T19:06:50.513Z,3.90
2023-02-25T19:09:18.610Z,3.80
2023-02-25T19:11:48.521Z,3.90
2023-02-25T19:14:18.589Z,3.90
2023-02-25T19:16:46.375Z,3.90
2023-02-25T19:19:14.793Z,3.80
2023-02-25T19:21:42.887Z,3.80
2023-02-25T19:24:13.164Z,3.80
2023-02-25T19:26:41.475Z,3.80
2023-02-25T19:29:09.229Z,3.80
2023-02-25T19:31:37.749Z,3.80
2023-02-25T19:34:05.431Z,3.80
2023-02-25T19:36:40.724Z,3.70
2023-02-25T19:39:08.120Z,3.70
2023-02-25T19:41:36.597Z,3.70
2023-02-25T19:44:04.696Z,3.60
2023-02-25T19:46:32.674Z,3.60
2023-02-25T19:49:00.283Z,3.60
2023-02-25T19:51:28.270Z,3.50
2023-02-25T19:53:56.135Z,3.40
2023-02-25T19:56:25.370Z,3.30
2023-02-25T19:58:58.913Z,3.30
2023-02-25T20:01:28.255Z,3.20
2023-02-25T20:03:56.042Z,3.10
2023-02-25T20:06:26.641Z,3.00
2023-02-25T20:08:56.409Z,3.00
2023-02-25T20:11:24.537Z,3.00
2023-02-25T20:13:52.169Z,3.00
2023-02-25T20:16:24.285Z,3.00
2023-02-25T20:18:53.783Z,3.00
2023-02-25T20:21:21.342Z,3.00
2023-02-25T20:23:49.193Z,3.00
2023-02-25T20:26:19.236Z,3.00
2023-02-25T20:28:47.705Z,3.00
2023-02-25T20:31:19.158Z,2.90
2023-02-25T20:33:50.910Z,3.00
2023-02-25T20:36:23.762Z,3.00
2023-02-25T20:38:59.052Z,3.00
2023-02-25T20:41:28.828Z,3.00
2023-02-25T20:43:57.122Z,3.10
2023-02-25T20:46:28.986Z,3.10
2023-02-25T20:48:57.303Z,3.20
2023-02-25T20:51:25.675Z,3.20
2023-02-25T20:53:54.215Z,3.30
2023-02-25T20:56:27.208Z,3.40
2023-02-25T20:58:55.560Z,3.40
2023-02-25T21:01:23.657Z,3.40
2023-02-25T21:03:51.504Z,3.50
2023-02-25T21:06:21.765Z,3.50
2023-02-25T21:08:49.735Z,3.60
2023-02-25T21:11:17.032Z,3.60
2023-02-25T21:13:47.268Z,3.60
2023-02-25T21:16:17.325Z,3.60
2023-02-25T21:18:45.844Z,3.60
2023-02-25T21:21:15.448Z,3.60
2023-02-25T21:23:43.945Z,3.70
2023-02-25T21:26:13.433Z,3.70
2023-02-25T21:28:41.584Z,3.60
2023-02-25T21:31:14.619Z,3.60
2023-02-25T21:33:42.982Z,3.60
2023-02-25T21:36:11.461Z,3.50
2023-02-25T21:38:39.525Z,3.50
2023-02-25T21:41:10.010Z,3.60
2023-02-25T21:43:38.435Z,3.60
2023-02-25T21:46:08.304Z,3.60
2023-02-25T21:48:35.721Z,3.70
2023-02-25T21:51:03.150Z,3.70
2023-02-25T21:53:30.377Z,3.70
2023-02-25T21:56:06.976Z,3.70
2023-02-25T21:58:34.100Z,3.70
2023-02-25T22:01:14.624Z,3.70
2023-02-25T22:03:42.032Z,3.70
2023-02-25T22:06:09.366Z,3.70
2023-02-25T22:08:38.615Z,3.80
2023-02-25T22:11:06.006Z,3.80
2023-02-25T22:13:34.662Z,3.80
2023-02-25T22:16:03.320Z,3.80
2023-02-25T22:18:31.636Z,3.80
2023-02-25T22:21:05.991Z,3.80
2023-02-25T22:23:33.123Z,3.80
2023-02-25T22:26:05.560Z,3.80
2023-02-25T22:28:33.079Z,3.80
2023-02-25T22:31:00.620Z,3.80
2023-02-25T22:33:28.264Z,3.70
2023-02-25T22:36:00.931Z,3.70
2023-02-25T22:38:30.123Z,3.70
2023-02-25T22:40:57.968Z,3.70
2023-02-25T22:43:25.404Z,3.70
2023-02-25T22:45:52.399Z,3.70
2023-02-25T22:48:19.628Z,3.70
2023-02-25T22:50:48.690Z,3.70
2023-02-25T22:53:17.397Z,3.60
2023-02-25T22:55:44.511Z,3.60
2023-02-25T22:58:11.552Z,3.60
2023-02-25T23:00:42.120Z,3.60
2023-02-25T23:03:09.942Z,3.60
2023-02-25T23:05:37.402Z,3.60
2023-02-25T23:08:05.526Z,3.60
2023-02-25T23:10:32.674Z,3.60
2023-02-25T23:13:01.162Z,3.50
2023-02-25T23:15:29.061Z,3.60
2023-02-25T23:17:56.445Z,3.60
2023-02-25T23:20:24.213Z,3.60
2023-02-25T23:22:53.053Z,3.50
2023-02-25T23:25:20.348Z,3.50
2023-02-25T23:27:47.443Z,3.50
2023-02-25T23:30:14.761Z,3.50
2023-02-25T23:32:42.334Z,3.50
2023-02-25T23:35:12.323Z,3.50
2023-02-25T23:37:39.422Z,3.50
2023-02-25T23:40:11.784Z,3.50
2023-02-25T23:42:40.210Z,3.50
2023-02-25T23:45:08.924Z,3.50
2023-02-25T23:47:38.440Z,3.50
2023-02-25T23:50:07.071Z,3.40
2023-02-25T23:52:34.540Z,3.40
2023-02-25T23:55:01.723Z,3.40
2023-02-25T23:57:28.717Z,3.40
2023-02-25T23:59:55.656Z,3.40
